createdAt,value
2022-11-28T00:01:01.336Z,6.60
2022-11-28T00:03:28.302Z,6.50
2022-11-28T00:05:58.217Z,6.60
2022-11-28T00:08:28.447Z,6.60
2022-11-28T00:10:55.860Z,6.60
2022-11-28T00:13:22.756Z,6.60
2022-11-28T00:15:59.215Z,6.60
2022-11-28T00:18:26.592Z,6.60
2022-11-28T00:20:53.541Z,6.50
2022-11-28T00:23:20.900Z,6.60
2022-11-28T00:25:47.862Z,6.60
2022-11-28T00:28:14.757Z,6.60
2022-11-28T00:30:41.648Z,6.60
2022-11-28T00:33:08.542Z,6.60
2022-11-28T00:35:35.723Z,6.60
2022-11-28T00:38:02.680Z,6.60
2022-11-28T00:40:29.623Z,6.60
2022-11-28T00:42:56.511Z,6.60
2022-11-28T00:45:23.452Z,6.60
2022-11-28T00:47:50.629Z,6.60
2022-11-28T00:50:17.608Z,6.60
2022-11-28T00:52:44.582Z,6.60
2022-11-28T00:55:11.574Z,6.60
2022-11-28T00:57:38.471Z,6.60
2022-11-28T01:00:06.969Z,6.70
2022-11-28T01:02:33.922Z,6.70
2022-11-28T01:05:01.198Z,6.70
2022-11-28T01:07:28.774Z,6.70
2022-11-28T01:09:56.126Z,6.70
2022-11-28T01:12:23.034Z,6.70
2022-11-28T01:14:50.005Z,6.70
2022-11-28T01:17:19.993Z,6.70
2022-11-28T01:19:49.856Z,6.70
2022-11-28T01:22:17.033Z,6.70
2022-11-28T01:24:44.061Z,6.70
2022-11-28T01:27:11.764Z,6.70
2022-11-28T01:29:38.648Z,6.70
2022-11-28T01:32:05.683Z,6.70
2022-11-28T01:34:32.581Z,6.70
2022-11-28T01:37:00.247Z,6.70
2022-11-28T01:39:27.148Z,6.80
2022-11-28T01:41:54.030Z,6.80
2022-11-28T01:44:20.827Z,6.70
2022-11-28T01:46:47.822Z,6.80
2022-11-28T01:49:20.481Z,6.80
2022-11-28T01:51:52.929Z,6.80
2022-11-28T01:54:20.872Z,6.80
2022-11-28T01:56:51.381Z,6.80
2022-11-28T01:59:18.351Z,6.70
2022-11-28T02:04:27.815Z,6.80
2022-11-28T02:06:55.331Z,6.80
2022-11-28T02:09:22.227Z,6.80
2022-11-28T02:12:20.405Z,6.80
2022-11-28T02:15:03.677Z,6.80
2022-11-28T02:17:42.451Z,6.80
2022-11-28T02:20:42.578Z,6.80
2022-11-28T02:23:33.787Z,6.80
2022-11-28T02:26:39.935Z,6.90
2022-11-28T02:29:27.974Z,6.90
2022-11-28T02:32:15.039Z,6.90
2022-11-28T02:34:57.226Z,6.90
2022-11-28T02:37:23.962Z,6.90
2022-11-28T02:40:03.822Z,6.90
2022-11-28T02:42:38.488Z,6.90
2022-11-28T02:45:16.481Z,7.00
2022-11-28T02:47:50.505Z,7.00
2022-11-28T02:50:47.593Z,7.00
2022-11-28T02:53:16.880Z,7.00
2022-11-28T02:55:44.046Z,7.00
2022-11-28T02:58:11.564Z,7.10
2022-11-28T03:00:40.019Z,7.00
2022-11-28T03:03:34.900Z,7.10
2022-11-28T03:06:23.375Z,7.10
2022-11-28T03:09:12.483Z,7.10
2022-11-28T03:11:58.457Z,7.10
2022-11-28T03:14:35.807Z,7.10
2022-11-28T03:17:28.487Z,7.20
2022-11-28T03:20:08.916Z,7.20
2022-11-28T03:22:45.053Z,7.10
2022-11-28T03:25:24.896Z,7.20
2022-11-28T03:27:59.135Z,7.20
2022-11-28T03:30:47.795Z,7.20
2022-11-28T03:33:15.091Z,7.20
2022-11-28T03:35:54.151Z,7.30
2022-11-28T03:38:23.376Z,7.30
2022-11-28T03:40:51.739Z,7.30
2022-11-28T03:43:24.887Z,7.30
2022-11-28T03:45:54.322Z,7.30
2022-11-28T03:48:26.922Z,7.30
2022-11-28T03:51:10.432Z,7.40
2022-11-28T03:53:50.484Z,7.30
2022-11-28T03:56:50.037Z,7.40
2022-11-28T03:59:49.434Z,7.40
2022-11-28T04:02:22.138Z,7.40
2022-11-28T04:04:54.121Z,7.40
2022-11-28T04:07:43.111Z,7.40
2022-11-28T04:10:22.722Z,7.40
2022-11-28T04:12:54.690Z,7.40
2022-11-28T04:15:31.183Z,7.40
2022-11-28T04:18:01.485Z,7.40
2022-11-28T04:20:43.984Z,7.40
2022-11-28T04:23:13.467Z,7.40
2022-11-28T04:25:42.795Z,7.40
2022-11-28T04:28:13.312Z,7.40
2022-11-28T04:30:40.866Z,7.40
2022-11-28T04:33:09.744Z,7.40
2022-11-28T04:35:39.882Z,7.40
2022-11-28T04:38:06.988Z,7.40
2022-11-28T04:40:36.814Z,7.40
2022-11-28T04:43:07.739Z,7.40
2022-11-28T04:45:36.610Z,7.40
2022-11-28T04:48:03.852Z,7.50
2022-11-28T04:50:42.616Z,7.40
2022-11-28T04:53:34.849Z,7.50
2022-11-28T04:56:05.250Z,7.50
2022-11-28T04:58:39.692Z,7.40
2022-11-28T05:01:07.655Z,7.50
2022-11-28T05:03:37.726Z,7.50
2022-11-28T05:06:07.384Z,7.50
2022-11-28T05:08:34.285Z,7.50
2022-11-28T05:11:01.176Z,7.50
2022-11-28T05:13:28.085Z,7.50
2022-11-28T05:15:55.032Z,7.50
2022-11-28T05:18:21.918Z,7.50
2022-11-28T05:20:48.816Z,7.50
2022-11-28T05:23:16.212Z,7.50
2022-11-28T05:25:43.101Z,7.50
2022-11-28T05:28:10.509Z,7.50
2022-11-28T05:30:37.402Z,7.50
2022-11-28T05:33:04.304Z,7.50
2022-11-28T05:35:31.193Z,7.50
2022-11-28T05:37:58.075Z,7.50
2022-11-28T05:40:24.993Z,7.50
2022-11-28T05:42:51.935Z,7.50
2022-11-28T05:45:18.821Z,7.50
2022-11-28T05:47:48.645Z,7.50
2022-11-28T05:50:16.081Z,7.50
2022-11-28T05:52:42.986Z,7.50
2022-11-28T05:55:09.991Z,7.50
2022-11-28T05:57:36.883Z,7.50
2022-11-28T06:00:04.150Z,7.50
2022-11-28T06:02:31.131Z,7.50
2022-11-28T06:04:59.945Z,7.40
2022-11-28T06:07:31.279Z,7.50
2022-11-28T06:09:58.204Z,7.50
2022-11-28T06:12:25.117Z,7.50
2022-11-28T06:14:52.115Z,7.50
2022-11-28T06:17:19.016Z,7.50
2022-11-28T06:19:46.095Z,7.50
2022-11-28T06:22:13.000Z,7.50
2022-11-28T06:24:39.880Z,7.40
2022-11-28T06:27:06.817Z,7.50
2022-11-28T06:29:33.692Z,7.40
2022-11-28T06:32:00.746Z,7.50
2022-11-28T06:34:27.720Z,7.50
2022-11-28T06:36:54.768Z,7.50
2022-11-28T06:39:24.732Z,7.50
2022-11-28T06:41:51.632Z,7.50
2022-11-28T06:44:18.535Z,7.50
2022-11-28T06:46:45.868Z,7.50
2022-11-28T06:49:16.013Z,7.50
2022-11-28T06:51:43.004Z,7.50
2022-11-28T06:54:10.011Z,7.50
2022-11-28T06:56:37.084Z,7.50
2022-11-28T06:59:03.998Z,7.50
2022-11-28T07:01:32.447Z,7.50
2022-11-28T07:03:59.473Z,7.50
2022-11-28T07:06:27.756Z,7.50
2022-11-28T07:08:56.753Z,7.50
2022-11-28T07:11:28.338Z,7.50
2022-11-28T07:13:55.996Z,7.50
2022-11-28T07:16:24.962Z,7.50
2022-11-28T07:18:52.279Z,7.50
2022-11-28T07:21:19.437Z,7.50
2022-11-28T07:23:46.816Z,7.50
2022-11-28T07:26:15.511Z,7.50
2022-11-28T07:28:42.889Z,7.50
2022-11-28T07:31:13.746Z,7.50
2022-11-28T07:33:42.094Z,7.50
2022-11-28T07:36:16.695Z,7.50
2022-11-28T07:38:43.651Z,7.50
2022-11-28T07:41:12.274Z,7.50
2022-11-28T07:43:40.082Z,7.50
2022-11-28T07:46:08.696Z,7.60
2022-11-28T07:48:38.840Z,7.50
2022-11-28T07:51:16.526Z,7.60
2022-11-28T07:53:43.842Z,7.50
2022-11-28T07:56:16.169Z,7.60
2022-11-28T07:58:44.108Z,7.50
2022-11-28T08:01:15.411Z,7.50
2022-11-28T08:03:42.534Z,7.60
2022-11-28T08:06:09.418Z,7.60
2022-11-28T08:08:36.467Z,7.60
2022-11-28T08:11:06.053Z,7.60
2022-11-28T08:13:33.194Z,7.60
2022-11-28T08:16:04.860Z,7.60
2022-11-28T08:18:31.886Z,7.60
2022-11-28T08:21:06.021Z,7.60
2022-11-28T08:23:34.628Z,7.60
2022-11-28T08:26:02.523Z,7.60
2022-11-28T08:28:29.684Z,7.60
2022-11-28T08:31:01.552Z,7.60
2022-11-28T08:33:28.468Z,7.60
2022-11-28T08:35:55.629Z,7.60
2022-11-28T08:38:22.535Z,7.60
2022-11-28T08:40:49.419Z,7.60
2022-11-28T08:43:16.322Z,7.70
2022-11-28T08:45:46.180Z,7.70
2022-11-28T08:48:21.030Z,7.70
2022-11-28T08:50:58.600Z,7.70
2022-11-28T08:53:27.905Z,7.70
2022-11-28T08:55:54.919Z,7.70
2022-11-28T08:58:21.801Z,7.70
2022-11-28T09:00:50.220Z,7.70
2022-11-28T09:03:18.709Z,7.70
2022-11-28T09:05:48.663Z,7.70
2022-11-28T09:08:16.856Z,7.70
2022-11-28T09:10:44.610Z,7.70
2022-11-28T09:13:12.944Z,7.70
2022-11-28T09:15:41.224Z,7.80
2022-11-28T09:18:08.183Z,7.70
2022-11-28T09:20:35.171Z,7.80
2022-11-28T09:23:02.107Z,7.80
2022-11-28T09:25:28.999Z,7.80
2022-11-28T09:27:55.955Z,7.80
2022-11-28T09:30:22.986Z,7.80
2022-11-28T09:32:50.174Z,7.80
2022-11-28T09:35:17.818Z,7.80
2022-11-28T09:37:44.951Z,7.80
2022-11-28T09:40:20.585Z,7.80
2022-11-28T09:42:47.705Z,7.90
2022-11-28T09:45:19.068Z,7.90
2022-11-28T09:47:56.892Z,7.90
2022-11-28T09:50:28.591Z,7.90
2022-11-28T09:53:10.538Z,7.90
2022-11-28T09:55:50.313Z,7.90
2022-11-28T09:58:17.037Z,8.00
2022-11-28T10:00:55.606Z,8.00
2022-11-28T10:03:23.677Z,8.00
2022-11-28T10:05:54.895Z,8.00
2022-11-28T10:08:55.987Z,8.00
2022-11-28T10:11:52.305Z,8.00
2022-11-28T10:14:31.117Z,8.00
2022-11-28T10:17:10.044Z,8.00
2022-11-28T10:19:53.987Z,8.00
2022-11-28T10:22:27.704Z,8.10
2022-11-28T10:24:59.836Z,8.10
2022-11-28T10:27:33.125Z,8.10
2022-11-28T10:30:04.082Z,8.10
2022-11-28T10:32:42.789Z,8.20
2022-11-28T10:35:33.799Z,8.10
2022-11-28T10:38:00.711Z,8.20
2022-11-28T10:40:43.216Z,8.10
2022-11-28T10:43:42.676Z,8.20
2022-11-28T10:46:31.545Z,8.10
2022-11-28T10:49:05.370Z,8.20
2022-11-28T10:51:57.430Z,8.20
2022-11-28T10:54:30.174Z,8.20
2022-11-28T10:57:15.984Z,8.20
2022-11-28T11:00:00.965Z,8.20
2022-11-28T11:02:36.039Z,8.20
2022-11-28T11:05:04.268Z,8.20
2022-11-28T11:07:32.489Z,8.20
2022-11-28T11:10:14.988Z,8.30
2022-11-28T11:12:42.014Z,8.30
2022-11-28T11:15:22.093Z,8.30
2022-11-28T11:17:50.877Z,8.30
2022-11-28T11:20:20.592Z,8.30
2022-11-28T11:23:01.528Z,8.30
2022-11-28T11:25:29.796Z,8.30
2022-11-28T11:28:01.924Z,8.30
2022-11-28T11:30:42.641Z,8.30
2022-11-28T11:33:17.052Z,8.40
2022-11-28T11:35:48.350Z,8.30
2022-11-28T11:38:16.825Z,8.40
2022-11-28T11:40:43.827Z,8.30
2022-11-28T11:43:31.542Z,8.30
2022-11-28T11:46:10.068Z,8.40
2022-11-28T11:48:42.391Z,8.40
2022-11-28T11:51:21.728Z,8.40
2022-11-28T11:54:13.900Z,8.40
2022-11-28T11:56:43.728Z,8.40
2022-11-28T11:59:31.818Z,8.40
2022-11-28T12:02:26.193Z,8.50
2022-11-28T12:05:04.145Z,8.50
2022-11-28T12:07:39.277Z,8.50
2022-11-28T12:10:07.344Z,8.50
2022-11-28T12:12:36.598Z,8.50
2022-11-28T12:15:03.627Z,8.50
2022-11-28T12:17:48.879Z,8.50
2022-11-28T12:20:22.446Z,8.50
2022-11-28T12:23:11.837Z,8.60
2022-11-28T12:25:54.212Z,8.60
2022-11-28T12:28:30.230Z,8.50
2022-11-28T12:31:06.170Z,8.60
2022-11-28T12:33:59.080Z,8.50
2022-11-28T12:36:35.137Z,8.60
2022-11-28T12:39:28.641Z,8.60
2022-11-28T12:42:11.568Z,8.60
2022-11-28T12:44:52.505Z,8.60
2022-11-28T12:47:28.975Z,8.60
2022-11-28T12:50:20.460Z,8.60
2022-11-28T12:52:59.963Z,8.60
2022-11-28T12:55:33.575Z,8.60
2022-11-28T12:58:15.654Z,8.60
2022-11-28T13:00:58.692Z,8.60
2022-11-28T13:03:56.851Z,8.70
2022-11-28T13:06:33.680Z,8.70
2022-11-28T13:09:21.225Z,8.70
2022-11-28T13:12:13.720Z,8.70
2022-11-28T13:14:55.851Z,8.70
2022-11-28T13:17:43.836Z,8.60
2022-11-28T13:20:24.803Z,8.70
2022-11-28T13:23:24.093Z,8.70
2022-11-28T13:25:53.434Z,8.70
2022-11-28T13:28:54.806Z,8.70
2022-11-28T13:31:39.887Z,8.70
2022-11-28T13:34:11.780Z,8.70
2022-11-28T13:39:48.219Z,8.70
2022-11-28T13:45:34.515Z,8.80
2022-11-28T13:48:57.400Z,8.80
2022-11-28T13:51:30.165Z,8.80
2022-11-28T13:54:19.971Z,8.70
2022-11-28T13:56:48.007Z,8.70
2022-11-28T13:59:22.038Z,8.80
2022-11-28T14:01:58.057Z,8.80
2022-11-28T14:04:25.146Z,8.80
2022-11-28T14:06:59.033Z,8.80
2022-11-28T14:09:49.881Z,8.80
2022-11-28T14:12:24.514Z,8.80
2022-11-28T14:15:03.489Z,8.80
2022-11-28T14:18:24.675Z,8.80
2022-11-28T14:20:55.743Z,8.80
2022-11-28T14:23:35.176Z,8.80
2022-11-28T14:26:02.081Z,8.90
2022-11-28T14:28:36.828Z,8.80
2022-11-28T14:31:07.964Z,8.90
2022-11-28T14:33:37.939Z,8.90
2022-11-28T14:36:22.756Z,8.90
2022-11-28T14:39:05.976Z,8.90
2022-11-28T14:41:32.918Z,8.90
2022-11-28T14:44:45.891Z,8.90
2022-11-28T14:47:21.962Z,8.90
2022-11-28T14:49:49.086Z,8.90
2022-11-28T14:52:39.488Z,8.90
2022-11-28T14:55:10.118Z,8.90
2022-11-28T14:57:55.020Z,8.90
2022-11-28T15:00:32.981Z,8.90
2022-11-28T15:03:22.794Z,8.90
2022-11-28T15:05:58.322Z,8.90
2022-11-28T15:08:29.554Z,8.90
2022-11-28T15:10:56.792Z,8.90
2022-11-28T15:13:36.430Z,8.90
2022-11-28T15:16:05.397Z,8.90
2022-11-28T15:18:32.512Z,8.90
2022-11-28T15:21:01.324Z,8.90
2022-11-28T15:23:33.975Z,8.90
2022-11-28T15:26:02.219Z,8.90
2022-11-28T15:28:32.300Z,8.90
2022-11-28T15:31:04.156Z,8.90
2022-11-28T15:33:31.247Z,8.90
2022-11-28T15:36:00.456Z,8.90
2022-11-28T15:38:28.943Z,8.90
2022-11-28T15:40:56.357Z,8.90
2022-11-28T15:43:23.926Z,8.90
2022-11-28T15:45:52.039Z,8.90
2022-11-28T15:48:27.219Z,8.90
2022-11-28T15:50:54.116Z,8.90
2022-11-28T15:53:21.624Z,8.90
2022-11-28T15:56:08.658Z,8.90
2022-11-28T15:58:35.650Z,9.00
2022-11-28T16:01:05.506Z,9.00
2022-11-28T16:03:35.006Z,9.00
2022-11-28T16:06:01.891Z,9.00
2022-11-28T16:08:35.992Z,9.00
2022-11-28T16:11:04.551Z,9.00
2022-11-28T16:13:32.255Z,9.00
2022-11-28T16:16:06.344Z,9.00
2022-11-28T16:18:33.264Z,9.00
2022-11-28T16:21:00.347Z,9.00
2022-11-28T16:23:34.495Z,9.00
2022-11-28T16:26:07.131Z,9.00
2022-11-28T16:28:35.697Z,9.00
2022-11-28T16:31:04.273Z,9.00
2022-11-28T16:33:39.530Z,9.00
2022-11-28T16:36:12.375Z,9.00
2022-11-28T16:38:40.319Z,9.00
2022-11-28T16:41:12.972Z,9.00
2022-11-28T16:43:40.467Z,9.00
2022-11-28T16:46:15.896Z,9.00
2022-11-28T16:48:49.052Z,9.00
2022-11-28T16:51:40.157Z,8.90
2022-11-28T16:54:27.478Z,8.90
2022-11-28T16:57:11.512Z,8.90
2022-11-28T16:59:38.437Z,8.90
2022-11-28T17:02:12.821Z,9.00
2022-11-28T17:04:39.721Z,9.00
2022-11-28T17:07:08.777Z,8.90
2022-11-28T17:09:36.725Z,8.90
2022-11-28T17:12:18.990Z,9.00
2022-11-28T17:14:48.687Z,8.90
2022-11-28T17:17:19.092Z,9.00
2022-11-28T17:19:46.666Z,8.90
2022-11-28T17:22:19.232Z,8.90
2022-11-28T17:24:46.185Z,9.00
2022-11-28T17:27:13.363Z,9.00
2022-11-28T17:29:40.354Z,9.00
2022-11-28T17:32:09.470Z,9.00
2022-11-28T17:34:36.414Z,9.00
2022-11-28T17:37:03.563Z,9.00
2022-11-28T17:39:30.616Z,9.00
2022-11-28T17:41:58.059Z,9.00
2022-11-28T17:44:30.077Z,9.00
2022-11-28T17:46:57.957Z,9.00
2022-11-28T17:49:24.976Z,8.90
2022-11-28T17:51:53.284Z,8.90
2022-11-28T17:54:21.727Z,8.90
2022-11-28T17:56:49.736Z,8.90
2022-11-28T17:59:18.296Z,8.90
2022-11-28T18:01:45.924Z,8.90
2022-11-28T18:04:12.826Z,8.90
2022-11-28T18:06:42.397Z,8.90
2022-11-28T18:09:12.316Z,8.90
2022-11-28T18:11:40.005Z,8.90
2022-11-28T18:14:06.907Z,9.00
2022-11-28T18:16:35.902Z,8.90
2022-11-28T18:19:03.351Z,8.90
2022-11-28T18:21:30.239Z,8.90
2022-11-28T18:23:57.794Z,8.90
2022-11-28T18:26:26.191Z,8.90
2022-11-28T18:28:54.088Z,8.90
2022-11-28T18:31:27.025Z,8.90
2022-11-28T18:34:00.261Z,8.80
2022-11-28T18:36:30.263Z,8.80
2022-11-28T18:39:02.807Z,8.80
2022-11-28T18:41:29.939Z,8.80
2022-11-28T18:43:57.959Z,8.80
2022-11-28T18:46:26.086Z,8.80
2022-11-28T18:48:53.100Z,8.70
2022-11-28T18:51:21.998Z,8.70
2022-11-28T18:53:50.967Z,8.70
2022-11-28T18:56:18.149Z,8.70
2022-11-28T18:58:47.995Z,8.70
2022-11-28T19:01:28.418Z,8.60
2022-11-28T19:04:00.170Z,8.60
2022-11-28T19:06:27.641Z,8.60
2022-11-28T19:08:57.215Z,8.50
2022-11-28T19:11:24.448Z,8.50
2022-11-28T19:13:53.485Z,8.40
2022-11-28T19:16:25.869Z,8.40
2022-11-28T19:18:52.960Z,8.40
2022-11-28T19:21:21.949Z,8.30
2022-11-28T19:23:49.115Z,8.30
2022-11-28T19:26:21.013Z,8.30
2022-11-28T19:28:47.971Z,8.40
2022-11-28T19:31:23.227Z,8.40
2022-11-28T19:34:04.663Z,8.40
2022-11-28T19:36:33.699Z,8.40
2022-11-28T19:39:01.080Z,8.40
2022-11-28T19:41:29.199Z,8.40
2022-11-28T19:43:56.673Z,8.50
2022-11-28T19:46:31.887Z,8.50
2022-11-28T19:49:00.654Z,8.50
2022-11-28T19:51:27.562Z,8.40
2022-11-28T19:53:58.465Z,8.40
2022-11-28T19:56:28.407Z,8.40
2022-11-28T19:58:55.694Z,8.40
2022-11-28T20:01:23.615Z,8.30
2022-11-28T20:03:51.122Z,8.30
2022-11-28T20:06:20.120Z,8.30
2022-11-28T20:08:47.612Z,8.30
2022-11-28T20:11:19.173Z,8.30
2022-11-28T20:13:49.619Z,8.30
2022-11-28T20:16:17.394Z,8.30
2022-11-28T20:18:45.183Z,8.30
2022-11-28T20:21:16.837Z,8.20
2022-11-28T20:23:48.853Z,8.20
2022-11-28T20:26:17.366Z,8.20
2022-11-28T20:28:48.401Z,8.20
2022-11-28T20:31:23.843Z,8.20
2022-11-28T20:33:51.736Z,8.10
2022-11-28T20:36:20.978Z,8.10
2022-11-28T20:38:51.267Z,8.20
2022-11-28T20:41:19.423Z,8.20
2022-11-28T20:43:46.612Z,8.20
2022-11-28T20:46:16.834Z,8.20
2022-11-28T20:48:43.972Z,8.10
2022-11-28T20:51:16.284Z,8.10
2022-11-28T20:53:43.215Z,8.10
2022-11-28T20:56:14.856Z,8.10
2022-11-28T20:58:41.861Z,8.10
2022-11-28T21:01:08.853Z,8.10
2022-11-28T21:03:37.054Z,8.10
2022-11-28T21:06:03.997Z,8.10
2022-11-28T21:08:31.449Z,8.10
2022-11-28T21:10:58.387Z,8.10
2022-11-28T21:13:28.025Z,8.20
2022-11-28T21:15:54.920Z,8.10
2022-11-28T21:18:21.852Z,8.10
2022-11-28T21:20:48.790Z,8.10
2022-11-28T21:23:16.573Z,8.10
2022-11-28T21:25:43.878Z,8.20
2022-11-28T21:28:11.210Z,8.10
2022-11-28T21:30:43.126Z,8.10
2022-11-28T21:33:11.470Z,8.10
2022-11-28T21:35:39.222Z,8.10
2022-11-28T21:38:06.910Z,8.10
2022-11-28T21:40:33.965Z,8.10
2022-11-28T21:43:00.861Z,8.10
2022-11-28T21:45:30.022Z,8.10
2022-11-28T21:47:57.088Z,8.10
2022-11-28T21:50:29.087Z,8.10
2022-11-28T21:52:56.096Z,8.10
2022-11-28T21:55:22.995Z,8.10
2022-11-28T21:57:49.872Z,8.10
2022-11-28T22:00:38.637Z,8.20
2022-11-28T22:03:10.871Z,8.20
2022-11-28T22:05:40.733Z,8.10
2022-11-28T22:08:07.629Z,8.10
2022-11-28T22:10:34.504Z,8.10
2022-11-28T22:13:01.426Z,8.10
2022-11-28T22:15:28.339Z,8.10
2022-11-28T22:17:57.843Z,8.20
2022-11-28T22:20:24.716Z,8.10
2022-11-28T22:22:51.633Z,8.20
2022-11-28T22:25:18.515Z,8.20
2022-11-28T22:27:49.058Z,8.20
2022-11-28T22:30:19.078Z,8.20
2022-11-28T22:32:46.167Z,8.20
2022-11-28T22:35:13.072Z,8.30
2022-11-28T22:37:40.177Z,8.20
2022-11-28T22:40:07.627Z,8.20
2022-11-28T22:42:34.544Z,8.30
2022-11-28T22:45:01.451Z,8.20
2022-11-28T22:47:28.356Z,8.30
2022-11-28T22:49:57.824Z,8.30
2022-11-28T22:52:27.228Z,8.20
2022-11-28T22:54:54.166Z,8.30
2022-11-28T22:57:21.183Z,8.30
2022-11-28T22:59:48.071Z,8.30
2022-11-28T23:02:15.102Z,8.30
2022-11-28T23:04:42.523Z,8.30
2022-11-28T23:07:09.572Z,8.30
2022-11-28T23:09:36.483Z,8.30
2022-11-28T23:12:03.476Z,8.20
2022-11-28T23:14:30.488Z,8.20
2022-11-28T23:16:57.375Z,8.30
2022-11-28T23:19:24.545Z,8.20
2022-11-28T23:21:51.501Z,8.30
2022-11-28T23:24:20.790Z,8.30
2022-11-28T23:26:48.367Z,8.30
2022-11-28T23:29:16.118Z,8.30
2022-11-28T23:31:43.595Z,8.20
2022-11-28T23:34:11.170Z,8.20
2022-11-28T23:36:42.429Z,8.20
2022-11-28T23:39:12.235Z,8.20
2022-11-28T23:41:39.391Z,8.30
2022-11-28T23:44:06.328Z,8.30
2022-11-28T23:46:33.408Z,8.30
2022-11-28T23:49:00.293Z,8.30
2022-11-28T23:51:27.277Z,8.30
2022-11-28T23:53:54.188Z,8.20
2022-11-28T23:56:26.103Z,8.20
2022-11-28T23:58:55.622Z,8.20
